createdAt,value
2019-05-09T00:05:05.584Z,100.00
2019-05-09T00:08:15.881Z,100.00
2019-05-09T00:10:58.741Z,100.00
2019-05-09T00:13:48.447Z,100.00
2019-05-09T00:16:33.359Z,100.00
2019-05-09T00:19:23.750Z,100.00
2019-05-09T00:22:07.012Z,100.00
2019-05-09T00:24:56.773Z,100.00
2019-05-09T00:27:39.660Z,100.00
2019-05-09T00:30:48.197Z,100.00
2019-05-09T00:33:34.076Z,100.00
2019-05-09T00:36:23.207Z,100.00
2019-05-09T00:39:07.073Z,100.00
2019-05-09T00:41:56.921Z,100.00
2019-05-09T00:44:43.132Z,100.00
2019-05-09T00:47:33.062Z,100.00
2019-05-09T00:50:17.226Z,100.00
2019-05-09T00:53:07.101Z,100.00
2019-05-09T00:55:49.295Z,100.00
2019-05-09T00:58:38.981Z,100.00
2019-05-09T01:01:21.126Z,100.00
2019-05-09T01:04:12.989Z,100.00
2019-05-09T01:06:55.476Z,100.00
2019-05-09T01:09:45.226Z,100.00
2019-05-09T01:12:27.411Z,100.00
2019-05-09T01:15:17.505Z,100.00
2019-05-09T01:17:59.994Z,100.00
2019-05-09T01:20:49.722Z,100.00
2019-05-09T01:23:34.351Z,100.00
2019-05-09T01:26:24.318Z,100.00
2019-05-09T01:29:08.144Z,100.00
2019-05-09T01:35:15.446Z,100.00
2019-05-09T01:38:05.228Z,100.00
2019-05-09T01:40:47.400Z,100.00
2019-05-09T01:43:37.194Z,100.00
2019-05-09T01:46:19.966Z,100.00
2019-05-09T01:49:09.706Z,100.00
2019-05-09T01:51:53.793Z,100.00
2019-05-09T01:57:47.966Z,100.00
2019-05-09T02:00:37.774Z,100.00
2019-05-09T02:03:19.762Z,100.00
2019-05-09T02:06:09.470Z,100.00
2019-05-09T02:08:54.252Z,100.00
2019-05-09T02:15:06.034Z,100.00
2019-05-09T02:18:14.734Z,100.00
2019-05-09T02:20:57.215Z,100.00
2019-05-09T02:26:47.901Z,100.00
2019-05-09T02:29:37.624Z,100.00
2019-05-09T02:32:19.802Z,100.00
2019-05-09T02:38:08.443Z,100.00
2019-05-09T02:40:59.479Z,100.00
2019-05-09T02:43:41.773Z,100.00
2019-05-09T02:46:50.363Z,100.00
2019-05-09T02:49:40.114Z,100.00
2019-05-09T02:52:29.911Z,100.00
2019-05-09T02:55:19.615Z,100.00
2019-05-09T02:58:03.226Z,100.00
2019-05-09T03:01:11.785Z,100.00
2019-05-09T03:04:20.315Z,100.00
2019-05-09T03:07:02.629Z,100.00
2019-05-09T03:09:52.449Z,100.00
2019-05-09T03:12:54.686Z,100.00
2019-05-09T03:18:52.036Z,100.00
2019-05-09T03:24:41.984Z,100.00
2019-05-09T03:27:28.969Z,100.00
2019-05-09T03:30:20.603Z,100.00
2019-05-09T03:33:00.682Z,100.00
2019-05-09T03:35:50.427Z,100.00
2019-05-09T03:38:40.186Z,100.00
2019-05-09T03:41:29.912Z,100.00
2019-05-09T03:44:12.542Z,100.00
2019-05-09T03:47:21.160Z,100.00
2019-05-09T03:50:25.292Z,100.00
2019-05-09T03:53:08.475Z,100.00
2019-05-09T03:55:52.497Z,100.00
2019-05-09T03:58:42.297Z,100.00
2019-05-09T04:01:32.028Z,100.00
2019-05-09T04:04:14.947Z,100.00
2019-05-09T04:07:04.683Z,100.00
2019-05-09T04:13:03.041Z,100.00
2019-05-09T04:15:47.194Z,100.00
2019-05-09T04:18:37.712Z,100.00
2019-05-09T04:21:21.214Z,100.00
2019-05-09T04:24:11.375Z,100.00
2019-05-09T04:30:20.276Z,100.00
2019-05-09T04:33:10.044Z,100.00
2019-05-09T04:35:53.944Z,100.00
2019-05-09T04:38:43.660Z,100.00
2019-05-09T04:41:28.607Z,100.00
2019-05-09T04:45:02.787Z,100.00
2019-05-09T04:47:43.443Z,100.00
2019-05-09T04:50:31.552Z,100.00
2019-05-09T04:53:13.808Z,100.00
2019-05-09T04:59:10.376Z,100.00
2019-05-09T05:02:18.927Z,100.00
2019-05-09T05:05:01.811Z,100.00
2019-05-09T05:07:51.524Z,100.00
2019-05-09T05:10:34.352Z,100.00
2019-05-09T05:13:26.781Z,92.30
2019-05-09T05:16:09.191Z,85.63
2019-05-09T05:18:58.895Z,87.98
2019-05-09T05:21:41.013Z,100.00
2019-05-09T05:24:49.559Z,100.00
2019-05-09T05:27:32.235Z,95.26
2019-05-09T05:33:45.043Z,73.50
2019-05-09T05:36:28.188Z,67.32
2019-05-09T05:38:59.404Z,65.85
2019-05-09T05:41:49.886Z,66.93
2019-05-09T05:44:40.191Z,61.41
2019-05-09T05:47:49.272Z,62.99
2019-05-09T05:50:32.584Z,55.03
2019-05-09T05:56:28.021Z,53.42
2019-05-09T05:59:11.771Z,58.28
2019-05-09T06:02:01.545Z,61.06
2019-05-09T06:04:51.377Z,68.37
2019-05-09T06:07:41.191Z,82.24
2019-05-09T06:10:30.979Z,89.47
2019-05-09T06:13:20.740Z,94.11
2019-05-09T06:16:10.479Z,99.03
2019-05-09T06:19:00.439Z,100.00
2019-05-09T06:24:53.834Z,100.00
2019-05-09T06:27:37.564Z,100.00
2019-05-09T06:33:46.241Z,100.00
2019-05-09T06:36:33.617Z,100.00
2019-05-09T06:39:23.399Z,100.00
2019-05-09T06:42:13.181Z,100.00
2019-05-09T06:48:00.021Z,100.00
2019-05-09T06:50:48.417Z,100.00
2019-05-09T06:53:39.356Z,100.00
2019-05-09T06:56:21.435Z,100.00
2019-05-09T06:59:31.719Z,100.00
2019-05-09T07:08:38.057Z,100.00
2019-05-09T07:11:20.941Z,100.00
2019-05-09T07:14:32.395Z,100.00
2019-05-09T07:17:12.027Z,100.00
2019-05-09T07:19:54.893Z,100.00
2019-05-09T07:22:44.582Z,100.00
2019-05-09T07:25:48.550Z,100.00
2019-05-09T07:28:38.291Z,100.00
2019-05-09T07:31:39.274Z,100.00
2019-05-09T07:34:47.787Z,100.00
2019-05-09T07:37:30.097Z,100.00
2019-05-09T07:40:19.787Z,100.00
2019-05-09T07:43:09.498Z,100.00
2019-05-09T07:46:12.541Z,100.00
2019-05-09T07:49:04.761Z,100.00
2019-05-09T07:51:54.567Z,100.00
2019-05-09T07:57:54.900Z,100.00
2019-05-09T08:00:32.578Z,100.00
2019-05-09T08:03:22.267Z,100.00
2019-05-09T08:06:11.986Z,100.00
2019-05-09T08:12:02.759Z,100.00
2019-05-09T08:15:07.616Z,100.00
2019-05-09T08:17:38.101Z,100.00
2019-05-09T08:20:28.043Z,100.00
2019-05-09T08:23:12.227Z,100.00
2019-05-09T08:26:04.469Z,100.00
2019-05-09T08:28:47.997Z,100.00
2019-05-09T08:31:40.082Z,100.00
2019-05-09T08:34:22.027Z,100.00
2019-05-09T08:37:12.690Z,100.00
2019-05-09T08:39:57.781Z,100.00
2019-05-09T08:42:48.097Z,100.00
2019-05-09T08:45:31.623Z,100.00
2019-05-09T08:48:21.516Z,100.00
2019-05-09T08:54:49.753Z,100.00
2019-05-09T08:57:39.441Z,100.00
2019-05-09T09:00:23.093Z,100.00
2019-05-09T09:06:15.241Z,100.00
2019-05-09T09:09:25.528Z,100.00
2019-05-09T09:12:25.269Z,100.00
2019-05-09T09:14:59.266Z,100.00
2019-05-09T09:17:30.040Z,100.00
2019-05-09T09:20:19.757Z,100.00
2019-05-09T09:23:02.067Z,100.00
2019-05-09T09:25:51.791Z,100.00
2019-05-09T09:28:34.361Z,100.00
2019-05-09T09:31:24.095Z,100.00
2019-05-09T09:34:07.908Z,100.00
2019-05-09T09:37:04.312Z,100.00
2019-05-09T09:39:44.709Z,100.00
2019-05-09T09:42:34.707Z,100.00
2019-05-09T09:45:19.088Z,100.00
2019-05-09T09:48:09.375Z,100.00
2019-05-09T09:50:53.342Z,100.00
2019-05-09T09:53:43.113Z,100.00
2019-05-09T09:56:27.985Z,100.00
2019-05-09T10:02:12.440Z,100.00
2019-05-09T10:05:02.237Z,100.00
2019-05-09T10:07:51.933Z,100.00
2019-05-09T10:10:35.407Z,100.00
2019-05-09T10:13:25.148Z,100.00
2019-05-09T10:16:33.784Z,100.00
2019-05-09T10:19:42.325Z,100.00
2019-05-09T10:22:26.106Z,100.00
2019-05-09T10:25:18.273Z,100.00
2019-05-09T10:28:00.114Z,100.00
2019-05-09T10:30:49.874Z,100.00
2019-05-09T10:33:39.759Z,100.00
2019-05-09T10:36:29.455Z,100.00
2019-05-09T10:45:45.214Z,100.00
2019-05-09T10:48:34.974Z,100.00
2019-05-09T10:51:18.537Z,100.00
2019-05-09T10:54:08.475Z,100.00
2019-05-09T10:56:50.808Z,100.00
2019-05-09T10:59:40.523Z,100.00
2019-05-09T11:02:23.368Z,100.00
2019-05-09T11:08:10.756Z,100.00
2019-05-09T11:10:53.164Z,100.00
2019-05-09T11:13:42.982Z,100.00
2019-05-09T11:16:44.902Z,100.00
2019-05-09T11:19:18.346Z,100.00
2019-05-09T11:22:08.301Z,100.00
2019-05-09T11:24:58.201Z,100.00
2019-05-09T11:27:42.251Z,100.00
2019-05-09T11:30:32.058Z,100.00
2019-05-09T11:33:21.840Z,100.00
2019-05-09T11:36:12.025Z,100.00
2019-05-09T11:38:55.395Z,100.00
2019-05-09T11:41:48.806Z,100.00
2019-05-09T11:44:31.360Z,100.00
2019-05-09T11:47:31.696Z,100.00
2019-05-09T11:50:05.382Z,100.00
2019-05-09T11:52:55.138Z,100.00
2019-05-09T11:55:44.868Z,100.00
2019-05-09T12:01:39.705Z,100.00
2019-05-09T12:04:23.580Z,100.00
2019-05-09T12:10:09.855Z,100.00
2019-05-09T12:12:59.573Z,100.00
2019-05-09T12:15:42.462Z,100.00
2019-05-09T12:18:32.184Z,100.00
2019-05-09T12:21:15.115Z,100.00
2019-05-09T12:24:04.846Z,100.00
2019-05-09T12:30:15.110Z,100.00
2019-05-09T12:33:04.789Z,100.00
2019-05-09T12:35:47.791Z,100.00
2019-05-09T12:38:38.883Z,100.00
2019-05-09T12:41:22.637Z,100.00
2019-05-09T12:44:12.388Z,100.00
2019-05-09T12:46:58.135Z,100.00
2019-05-09T12:49:48.808Z,100.00
2019-05-09T12:52:31.866Z,100.00
2019-05-09T12:55:21.573Z,100.00
2019-05-09T12:58:04.321Z,100.00
2019-05-09T13:00:54.134Z,100.00
2019-05-09T13:03:38.215Z,100.00
2019-05-09T13:06:29.595Z,100.00
2019-05-09T13:09:19.562Z,100.00
2019-05-09T13:12:09.282Z,100.00
2019-05-09T13:14:52.119Z,100.00
2019-05-09T13:17:43.952Z,100.00
2019-05-09T13:20:33.788Z,100.00
2019-05-09T13:26:28.949Z,100.00
2019-05-09T13:29:11.797Z,100.00
2019-05-09T13:32:01.547Z,100.00
2019-05-09T13:34:51.341Z,100.00
2019-05-09T13:37:41.150Z,100.00
2019-05-09T13:40:30.925Z,100.00
2019-05-09T13:43:20.699Z,100.00
2019-05-09T13:46:10.429Z,100.00
2019-05-09T13:49:11.100Z,100.00
2019-05-09T13:51:50.990Z,100.00
2019-05-09T13:54:38.064Z,100.00
2019-05-09T13:57:19.986Z,100.00
2019-05-09T14:00:10.015Z,100.00
2019-05-09T14:02:59.771Z,100.00
2019-05-09T14:06:01.945Z,100.00
2019-05-09T14:08:43.929Z,100.00
2019-05-09T14:11:33.625Z,100.00
2019-05-09T14:14:17.920Z,100.00
2019-05-09T14:17:09.828Z,100.00
2019-05-09T14:19:52.302Z,100.00
2019-05-09T14:22:42.063Z,100.00
2019-05-09T14:25:24.450Z,100.00
2019-05-09T14:28:14.178Z,100.00
2019-05-09T14:30:59.326Z,100.00
2019-05-09T14:33:48.506Z,100.00
2019-05-09T14:36:30.425Z,100.00
2019-05-09T14:39:20.152Z,100.00
2019-05-09T14:42:02.463Z,100.00
2019-05-09T14:44:52.191Z,100.00
2019-05-09T14:47:38.572Z,100.00
2019-05-09T14:50:28.337Z,100.00
2019-05-09T14:53:10.270Z,100.00
2019-05-09T14:56:00.003Z,100.00
2019-05-09T14:58:42.963Z,100.00
2019-05-09T15:01:32.677Z,100.00
2019-05-09T15:04:15.183Z,100.00
2019-05-09T15:07:04.886Z,100.00
2019-05-09T15:09:47.108Z,100.00
2019-05-09T15:12:39.002Z,100.00
2019-05-09T15:15:21.211Z,100.00
2019-05-09T15:18:10.997Z,100.00
2019-05-09T15:20:53.414Z,100.00
2019-05-09T15:23:43.124Z,100.00
2019-05-09T15:26:27.558Z,100.00
2019-05-09T15:29:17.471Z,100.00
2019-05-09T15:32:04.738Z,100.00
2019-05-09T15:34:51.280Z,100.00
2019-05-09T15:37:33.823Z,100.00
2019-05-09T15:40:23.562Z,100.00
2019-05-09T15:43:08.324Z,100.00
2019-05-09T15:46:18.467Z,100.00
2019-05-09T15:49:07.830Z,100.00
2019-05-09T15:51:50.215Z,100.00
2019-05-09T15:54:39.941Z,100.00
2019-05-09T15:57:22.181Z,100.00
2019-05-09T16:03:14.791Z,100.00
2019-05-09T16:08:51.379Z,100.00
2019-05-09T16:11:37.770Z,100.00
2019-05-09T16:14:20.432Z,100.00
2019-05-09T16:17:10.216Z,100.00
2019-05-09T16:20:00.014Z,100.00
2019-05-09T16:22:49.811Z,100.00
2019-05-09T16:28:43.329Z,100.00
2019-05-09T16:31:27.873Z,100.00
2019-05-09T16:34:18.030Z,100.00
2019-05-09T16:37:09.263Z,100.00
2019-05-09T16:39:52.151Z,100.00
2019-05-09T16:42:41.934Z,100.00
2019-05-09T16:45:31.797Z,100.00
2019-05-09T16:48:21.866Z,100.00
2019-05-09T16:51:11.839Z,100.00
2019-05-09T16:54:01.639Z,100.00
2019-05-09T16:56:51.416Z,100.00
2019-05-09T16:59:41.317Z,100.00
2019-05-09T17:02:31.081Z,100.00
2019-05-09T17:05:20.865Z,100.00
2019-05-09T17:08:10.613Z,100.00
2019-05-09T17:10:53.143Z,100.00
2019-05-09T17:13:42.956Z,100.00
2019-05-09T17:16:33.029Z,100.00
2019-05-09T17:19:22.835Z,100.00
2019-05-09T17:25:10.716Z,100.00
2019-05-09T17:28:00.446Z,100.00
2019-05-09T17:30:42.610Z,100.00
2019-05-09T17:33:32.347Z,100.00
2019-05-09T17:36:14.804Z,100.00
2019-05-09T17:41:59.930Z,100.00
2019-05-09T17:44:49.699Z,100.00
2019-05-09T17:47:39.520Z,100.00
2019-05-09T17:50:29.277Z,100.00
2019-05-09T17:53:33.865Z,100.00
2019-05-09T17:56:15.975Z,100.00
2019-05-09T17:59:05.739Z,100.00
2019-05-09T18:01:48.609Z,100.00
2019-05-09T18:04:38.334Z,100.00
2019-05-09T18:07:09.044Z,100.00
2019-05-09T18:09:58.741Z,100.00
2019-05-09T18:12:40.982Z,100.00
2019-05-09T18:15:30.686Z,100.00
2019-05-09T18:18:15.191Z,100.00
2019-05-09T18:21:05.183Z,100.00
2019-05-09T18:23:48.045Z,100.00
2019-05-09T18:26:18.764Z,100.00
2019-05-09T18:29:08.480Z,100.00
2019-05-09T18:38:07.984Z,100.00
2019-05-09T18:40:51.698Z,100.00
2019-05-09T18:43:41.515Z,100.00
2019-05-09T18:46:31.652Z,100.00
2019-05-09T18:49:21.452Z,100.00
2019-05-09T18:52:11.271Z,100.00
2019-05-09T18:55:01.096Z,100.00
2019-05-09T18:57:50.888Z,100.00
2019-05-09T19:00:40.762Z,100.00
2019-05-09T19:03:30.690Z,100.00
2019-05-09T19:06:20.487Z,100.00
2019-05-09T19:09:10.228Z,100.00
2019-05-09T19:11:54.274Z,100.00
2019-05-09T19:18:00.633Z,100.00
2019-05-09T19:23:59.731Z,100.00
2019-05-09T19:26:49.475Z,100.00
2019-05-09T19:29:33.464Z,100.00
2019-05-09T19:32:23.220Z,100.00
2019-05-09T19:35:05.213Z,100.00
2019-05-09T19:37:55.030Z,100.00
2019-05-09T19:40:37.762Z,100.00
2019-05-09T19:43:27.610Z,100.00
2019-05-09T19:46:10.393Z,100.00
2019-05-09T19:49:00.126Z,100.00
2019-05-09T19:51:42.707Z,100.00
2019-05-09T19:54:32.487Z,100.00
2019-05-09T19:57:14.871Z,100.00
2019-05-09T20:00:04.807Z,100.00
2019-05-09T20:02:47.189Z,100.00
2019-05-09T20:05:37.021Z,100.00
2019-05-09T20:08:26.838Z,100.00
2019-05-09T20:14:21.203Z,100.00
2019-05-09T20:17:10.992Z,100.00
2019-05-09T20:19:53.975Z,100.00
2019-05-09T20:22:52.548Z,100.00
2019-05-09T20:25:31.659Z,100.00
2019-05-09T20:28:21.581Z,100.00
2019-05-09T20:31:04.297Z,100.00
2019-05-09T20:33:54.039Z,100.00
2019-05-09T20:36:43.745Z,100.00
2019-05-09T20:39:26.513Z,100.00
2019-05-09T20:42:16.474Z,100.00
2019-05-09T20:48:00.936Z,100.00
2019-05-09T20:50:32.125Z,100.00
2019-05-09T20:53:22.309Z,100.00
2019-05-09T20:56:12.617Z,100.00
2019-05-09T20:58:56.201Z,100.00
2019-05-09T21:01:46.747Z,100.00
2019-05-09T21:04:36.904Z,100.00
2019-05-09T21:10:18.257Z,100.00
2019-05-09T21:13:09.316Z,100.00
2019-05-09T21:15:51.997Z,100.00
2019-05-09T21:18:42.781Z,100.00
2019-05-09T21:21:29.170Z,100.00
2019-05-09T21:24:18.446Z,100.00
2019-05-09T21:27:01.359Z,100.00
2019-05-09T21:29:51.610Z,100.00
2019-05-09T21:32:35.217Z,100.00
2019-05-09T21:35:25.015Z,100.00
2019-05-09T21:38:07.938Z,100.00
2019-05-09T21:40:57.668Z,100.00
2019-05-09T21:43:40.015Z,100.00
2019-05-09T21:46:29.745Z,100.00
2019-05-09T21:49:12.179Z,100.00
2019-05-09T21:52:01.911Z,100.00
2019-05-09T21:54:44.630Z,100.00
2019-05-09T21:57:34.350Z,100.00
2019-05-09T22:00:20.744Z,100.00
2019-05-09T22:03:10.684Z,100.00
2019-05-09T22:05:53.152Z,100.00
2019-05-09T22:08:42.907Z,100.00
2019-05-09T22:11:27.342Z,100.00
2019-05-09T22:14:17.076Z,100.00
2019-05-09T22:23:31.286Z,100.00
2019-05-09T22:26:17.614Z,100.00
2019-05-09T22:31:46.886Z,100.00
2019-05-09T22:34:36.936Z,100.00
2019-05-09T22:37:19.400Z,100.00
2019-05-09T22:43:16.609Z,100.00
2019-05-09T22:46:06.807Z,100.00
2019-05-09T22:48:48.949Z,100.00
2019-05-09T22:51:38.859Z,100.00
2019-05-09T22:54:21.872Z,100.00
2019-05-09T22:57:05.510Z,100.00
2019-05-09T22:59:55.592Z,100.00
2019-05-09T23:02:46.186Z,100.00
2019-05-09T23:05:35.932Z,100.00
2019-05-09T23:08:22.911Z,100.00
2019-05-09T23:11:12.666Z,100.00
2019-05-09T23:13:55.200Z,100.00
2019-05-09T23:16:44.950Z,100.00
2019-05-09T23:19:27.004Z,100.00
2019-05-09T23:22:16.872Z,100.00
2019-05-09T23:25:01.470Z,100.00
2019-05-09T23:27:44.181Z,100.00
2019-05-09T23:30:34.119Z,100.00
2019-05-09T23:36:20.676Z,100.00
2019-05-09T23:39:29.224Z,100.00
2019-05-09T23:42:12.176Z,100.00
2019-05-09T23:45:01.939Z,100.00
2019-05-09T23:47:44.632Z,100.00
2019-05-09T23:50:34.330Z,100.00
2019-05-09T23:53:19.443Z,100.00
2019-05-09T23:56:27.949Z,100.00
2019-05-09T23:59:28.797Z,100.00
